createdAt,value
2019-03-28T00:03:39.814Z,66.60
2019-03-28T00:08:46.354Z,66.50
2019-03-28T00:13:52.739Z,66.50
2019-03-28T00:19:01.946Z,66.60
2019-03-28T00:24:12.794Z,66.70
2019-03-28T00:29:19.111Z,66.90
2019-03-28T00:34:25.467Z,67.20
2019-03-28T00:39:31.869Z,67.60
2019-03-28T00:50:53.371Z,68.10
2019-03-28T00:55:59.590Z,68.40
2019-03-28T01:01:05.832Z,68.70
2019-03-28T01:06:12.151Z,69.20
2019-03-28T01:11:18.384Z,69.70
2019-03-28T01:16:24.653Z,69.90
2019-03-28T01:21:31.000Z,70.10
2019-03-28T01:26:37.239Z,70.30
2019-03-28T01:31:43.510Z,70.40
2019-03-28T01:36:49.747Z,70.40
2019-03-28T01:41:56.005Z,70.40
2019-03-28T01:47:02.248Z,70.50
2019-03-28T01:52:08.518Z,70.50
2019-03-28T01:57:14.802Z,70.60
2019-03-28T02:02:21.049Z,70.70
2019-03-28T02:07:27.281Z,70.90
2019-03-28T02:12:33.603Z,70.90
2019-03-28T02:17:39.833Z,71.10
2019-03-28T02:22:46.099Z,71.30
2019-03-28T02:27:52.446Z,71.30
2019-03-28T02:32:58.694Z,71.20
2019-03-28T02:38:04.964Z,71.10
2019-03-28T02:43:11.283Z,71.00
2019-03-28T02:48:17.516Z,70.90
2019-03-28T02:53:23.753Z,71.00
2019-03-28T02:58:30.201Z,71.10
2019-03-28T03:03:36.416Z,71.10
2019-03-28T03:08:42.675Z,71.10
2019-03-28T03:13:48.939Z,71.10
2019-03-28T03:18:55.161Z,71.20
2019-03-28T03:24:01.436Z,71.10
2019-03-28T03:29:07.807Z,71.10
2019-03-28T03:34:14.048Z,71.30
2019-03-28T03:39:20.274Z,71.30
2019-03-28T03:44:26.525Z,71.30
2019-03-28T03:49:32.758Z,71.50
2019-03-28T03:54:39.000Z,71.50
2019-03-28T03:59:45.277Z,71.50
2019-03-28T04:04:51.542Z,71.50
2019-03-28T04:09:57.814Z,71.50
2019-03-28T04:15:04.051Z,71.60
2019-03-28T04:20:10.363Z,71.70
2019-03-28T04:25:16.642Z,71.60
2019-03-28T04:30:23.192Z,71.70
2019-03-28T04:35:29.463Z,71.80
2019-03-28T04:40:35.938Z,71.60
2019-03-28T04:45:42.389Z,71.60
2019-03-28T04:50:48.771Z,71.50
2019-03-28T04:55:55.050Z,71.70
2019-03-28T05:01:01.442Z,71.80
2019-03-28T05:06:07.697Z,71.90
2019-03-28T05:11:14.036Z,72.10
2019-03-28T05:16:20.361Z,72.10
2019-03-28T05:21:26.609Z,72.20
2019-03-28T05:26:32.882Z,72.00
2019-03-28T05:31:39.128Z,72.60
2019-03-28T05:36:45.585Z,71.80
2019-03-28T05:41:52.007Z,71.90
2019-03-28T05:46:58.320Z,71.80
2019-03-28T05:52:04.558Z,71.90
2019-03-28T05:57:10.851Z,72.00
2019-03-28T06:02:17.286Z,72.00
2019-03-28T06:07:23.513Z,71.90
2019-03-28T06:12:29.804Z,71.70
2019-03-28T06:17:36.045Z,71.60
2019-03-28T06:22:42.285Z,71.40
2019-03-28T06:27:48.707Z,71.30
2019-03-28T06:32:55.035Z,71.10
2019-03-28T06:38:01.332Z,71.00
2019-03-28T06:43:07.584Z,70.90
2019-03-28T06:48:14.037Z,70.70
2019-03-28T06:53:20.481Z,70.60
2019-03-28T06:58:26.700Z,70.20
2019-03-28T07:03:32.973Z,70.00
2019-03-28T07:08:39.323Z,69.80
2019-03-28T07:13:45.526Z,69.70
2019-03-28T07:18:51.822Z,69.80
2019-03-28T07:23:58.196Z,69.70
2019-03-28T07:29:04.536Z,69.60
2019-03-28T07:34:13.455Z,70.30
2019-03-28T07:39:19.262Z,69.40
2019-03-28T07:44:25.834Z,69.00
2019-03-28T07:49:32.100Z,68.60
2019-03-28T07:54:39.329Z,67.80
2019-03-28T07:59:45.664Z,67.40
2019-03-28T08:04:51.916Z,66.90
2019-03-28T08:09:58.153Z,66.40
2019-03-28T08:15:04.553Z,66.00
2019-03-28T08:20:11.002Z,65.40
2019-03-28T08:25:17.320Z,64.90
2019-03-28T08:30:39.068Z,63.90
2019-03-28T08:35:45.364Z,63.00
2019-03-28T08:40:51.743Z,62.10
2019-03-28T08:45:58.163Z,61.00
2019-03-28T08:51:04.549Z,60.30
2019-03-28T08:56:10.874Z,59.40
2019-03-28T09:01:17.258Z,59.10
2019-03-28T09:06:23.552Z,59.00
2019-03-28T09:11:29.815Z,58.50
2019-03-28T09:16:36.169Z,58.90
2019-03-28T09:21:42.386Z,58.30
2019-03-28T09:26:48.611Z,57.90
2019-03-28T09:31:55.124Z,57.60
2019-03-28T09:37:01.450Z,57.50
2019-03-28T09:42:07.758Z,57.40
2019-03-28T09:47:14.060Z,57.20
2019-03-28T09:52:20.341Z,57.10
2019-03-28T09:57:28.424Z,56.80
2019-03-28T10:02:34.764Z,56.70
2019-03-28T10:07:41.099Z,56.80
2019-03-28T10:12:47.369Z,56.60
2019-03-28T10:17:54.813Z,56.30
2019-03-28T10:23:01.317Z,56.00
2019-03-28T10:28:07.623Z,55.20
2019-03-28T10:33:13.920Z,55.10
2019-03-28T10:38:20.230Z,54.60
2019-03-28T10:43:26.461Z,53.40
2019-03-28T10:48:32.713Z,51.90
2019-03-28T10:53:39.041Z,50.40
2019-03-28T10:58:45.385Z,48.90
2019-03-28T11:03:51.747Z,47.60
2019-03-28T11:08:58.061Z,46.70
2019-03-28T11:14:04.411Z,46.00
2019-03-28T11:19:10.708Z,45.40
2019-03-28T11:24:16.983Z,44.50
2019-03-28T11:29:23.318Z,43.20
2019-03-28T11:34:29.731Z,43.20
2019-03-28T11:39:36.020Z,43.00
2019-03-28T11:44:42.351Z,42.40
2019-03-28T11:49:48.593Z,41.40
2019-03-28T11:54:54.831Z,41.10
2019-03-28T12:00:01.474Z,40.90
2019-03-28T12:05:08.401Z,41.30
2019-03-28T12:10:14.724Z,41.30
2019-03-28T12:15:21.057Z,42.10
2019-03-28T12:20:27.467Z,42.70
2019-03-28T12:25:33.788Z,42.90
2019-03-28T12:30:40.084Z,42.70
2019-03-28T12:35:46.421Z,42.40
2019-03-28T12:40:53.162Z,41.80
2019-03-28T12:45:59.388Z,41.80
2019-03-28T12:51:05.693Z,42.10
2019-03-28T12:56:12.470Z,41.80
2019-03-28T13:01:18.847Z,41.40
2019-03-28T13:06:25.073Z,41.50
2019-03-28T13:11:31.367Z,41.60
2019-03-28T13:16:37.594Z,41.80
2019-03-28T13:21:43.916Z,41.80
2019-03-28T13:26:50.191Z,42.10
2019-03-28T13:31:56.478Z,42.40
2019-03-28T13:37:02.783Z,42.70
2019-03-28T13:42:08.988Z,42.40
2019-03-28T13:47:15.600Z,42.20
2019-03-28T13:52:21.934Z,42.80
2019-03-28T13:57:28.364Z,42.50
2019-03-28T14:02:34.600Z,41.90
2019-03-28T14:07:40.901Z,42.50
2019-03-28T14:12:47.187Z,41.80
2019-03-28T14:17:54.790Z,42.90
2019-03-28T14:23:01.210Z,43.60
2019-03-28T14:28:07.462Z,44.00
2019-03-28T14:33:15.972Z,44.20
2019-03-28T14:38:22.481Z,43.80
2019-03-28T14:43:28.916Z,43.50
2019-03-28T14:48:36.286Z,43.30
2019-03-28T14:53:42.596Z,43.50
2019-03-28T14:58:49.130Z,43.30
2019-03-28T15:03:56.274Z,43.00
2019-03-28T15:09:03.200Z,42.50
2019-03-28T15:14:09.494Z,42.70
2019-03-28T15:19:16.132Z,43.00
2019-03-28T15:24:23.203Z,42.90
2019-03-28T15:29:29.550Z,42.80
2019-03-28T15:34:36.067Z,43.00
2019-03-28T15:39:42.491Z,43.40
2019-03-28T15:44:49.269Z,43.00
2019-03-28T15:49:55.964Z,43.50
2019-03-28T15:55:02.703Z,43.80
2019-03-28T16:00:09.651Z,43.80
2019-03-28T16:05:16.029Z,44.50
2019-03-28T16:10:22.415Z,45.10
2019-03-28T16:15:28.759Z,45.60
2019-03-28T16:20:35.175Z,46.30
2019-03-28T16:25:41.446Z,47.20
2019-03-28T16:30:47.759Z,48.00
2019-03-28T16:35:54.082Z,48.80
2019-03-28T16:41:00.345Z,49.30
2019-03-28T16:46:07.817Z,49.60
2019-03-28T16:51:17.315Z,50.00
2019-03-28T16:56:22.230Z,50.20
2019-03-28T17:01:28.499Z,50.30
2019-03-28T17:06:34.802Z,50.50
2019-03-28T17:11:41.026Z,50.40
2019-03-28T17:16:47.370Z,50.40
2019-03-28T17:21:53.660Z,50.60
2019-03-28T17:27:00.033Z,50.50
2019-03-28T17:32:06.380Z,50.60
2019-03-28T17:37:27.514Z,50.60
2019-03-28T17:42:33.760Z,50.80
2019-03-28T17:47:40.048Z,51.00
2019-03-28T17:52:46.317Z,51.20
2019-03-28T17:57:54.620Z,51.40
2019-03-28T18:03:09.129Z,51.70
2019-03-28T18:08:09.014Z,51.80
2019-03-28T18:13:15.361Z,52.10
2019-03-28T18:18:21.651Z,52.30
2019-03-28T18:23:28.207Z,52.40
2019-03-28T18:28:35.693Z,52.60
2019-03-28T18:33:42.430Z,52.80
2019-03-28T18:38:48.660Z,52.90
2019-03-28T18:43:54.882Z,53.00
2019-03-28T18:49:01.195Z,53.30
2019-03-28T18:54:07.568Z,53.40
2019-03-28T18:59:13.841Z,53.30
2019-03-28T19:04:20.076Z,53.60
2019-03-28T19:09:26.430Z,53.70
2019-03-28T19:14:33.734Z,54.00
2019-03-28T19:19:40.001Z,54.30
2019-03-28T19:24:46.366Z,54.70
2019-03-28T19:29:52.666Z,55.20
2019-03-28T19:35:02.740Z,55.60
2019-03-28T19:40:07.643Z,56.00
2019-03-28T19:45:17.225Z,56.30
2019-03-28T19:50:29.993Z,56.70
2019-03-28T19:55:39.724Z,57.10
2019-03-28T20:00:45.056Z,57.30
2019-03-28T20:05:53.009Z,57.90
2019-03-28T20:11:01.772Z,58.20
2019-03-28T20:16:09.313Z,58.50
2019-03-28T20:21:24.755Z,58.90
2019-03-28T20:26:41.650Z,59.30
2019-03-28T20:31:49.055Z,59.50
2019-03-28T20:36:56.392Z,59.60
2019-03-28T20:42:04.845Z,60.00
2019-03-28T20:47:16.691Z,60.80
2019-03-28T20:52:24.307Z,61.10
2019-03-28T20:57:31.894Z,61.50
2019-03-28T21:02:44.164Z,62.10
2019-03-28T21:07:53.680Z,62.40
2019-03-28T21:13:00.642Z,62.90
2019-03-28T21:18:06.906Z,63.50
2019-03-28T21:23:13.431Z,63.80
2019-03-28T21:28:19.748Z,64.10
2019-03-28T21:33:26.082Z,64.70
2019-03-28T21:38:32.276Z,64.80
2019-03-28T21:43:38.558Z,65.50
2019-03-28T21:48:44.865Z,65.80
2019-03-28T21:53:51.131Z,65.70
2019-03-28T21:58:57.340Z,66.00
2019-03-28T22:04:03.590Z,66.50
2019-03-28T22:09:09.940Z,66.90
2019-03-28T22:14:16.147Z,67.40
2019-03-28T22:19:22.390Z,67.70
2019-03-28T22:24:28.594Z,68.20
2019-03-28T22:29:34.825Z,68.60
2019-03-28T22:34:41.086Z,68.80
2019-03-28T22:39:47.360Z,69.20
2019-03-28T22:44:53.801Z,69.50
2019-03-28T22:50:00.062Z,70.00
2019-03-28T22:55:07.161Z,70.50
2019-03-28T23:00:13.751Z,70.70
2019-03-28T23:05:19.950Z,71.00
2019-03-28T23:10:26.247Z,71.20
2019-03-28T23:15:32.442Z,71.10
2019-03-28T23:20:38.698Z,71.50
2019-03-28T23:25:45.021Z,71.70
2019-03-28T23:30:51.289Z,72.00
2019-03-28T23:35:57.670Z,72.40
2019-03-28T23:41:03.983Z,72.70
2019-03-28T23:46:11.741Z,72.80
2019-03-28T23:51:18.193Z,73.00
2019-03-28T23:56:24.443Z,73.30
